Time;durP1;ratioP1;P1;durP2;ratioP2;P2;SDS_P1;SDS_P2;PMS_P1;PMS_P2;Temp;Humidity;BMP_temperature;BMP_pressure;BME280_temperature;BME280_humidity;BME280_pressure;Samples;Min_cycle;Max_cycle;Signal;HPM_P1;HPM_P2
2023/01/13 13:06:56;;;;;;;22.10;11.50;;;3.30;79.90;;;;;;1959092;73;25780;-47
2023/01/13 13:09:31;;;;;;;19.15;11.95;;;3.30;81.70;;;;;;1917363;74;21078;-47
2023/01/13 13:14:45;;;;;;;26.33;12.20;;;3.30;82.10;;;;;;1912289;75;21081;-47
2023/01/13 13:17:32;;;;;;;25.32;13.88;;;3.30;81.90;;;;;;1918613;75;21465;-45
2023/01/13 13:20:02;;;;;;;20.82;11.03;;;3.30;81.90;;;;;;1918301;75;21082;-46
2023/01/13 13:22:39;;;;;;;23.30;12.73;;;3.30;81.90;;;;;;1918443;75;21007;-45
2023/01/13 13:25:23;;;;;;;19.25;11.00;;;3.30;82.20;;;;;;1918030;74;21540;-46
2023/01/13 13:28:04;;;;;;;24.67;12.90;;;3.30;82.20;;;;;;1917600;74;21084;-45
2023/01/13 13:30:39;;;;;;;30.23;11.80;;;3.30;82.00;;;;;;1916957;74;21034;-45
2023/01/13 13:33:39;;;;;;;32.00;11.30;;;3.30;82.50;;;;;;1918517;75;21007;-45
2023/01/13 13:36:17;;;;;;;26.10;12.65;;;3.30;82.60;;;;;;1918437;75;21039;-45
2023/01/13 13:47:38;;;;;;;33.20;14.35;;;3.40;82.50;;;;;;1918334;75;21018;-45
2023/01/13 13:50:19;;;;;;;36.75;12.78;;;3.40;82.90;;;;;;1918330;75;21003;-45
2023/01/13 13:52:54;;;;;;;42.20;17.65;;;3.40;83.00;;;;;;1918305;75;21449;-44
2023/01/13 13:55:25;;;;;;;39.03;18.50;;;3.40;83.10;;;;;;1917595;74;21534;-45
2023/01/13 13:57:56;;;;;;;53.55;20.68;;;3.50;83.40;;;;;;1918322;74;21123;-46
2023/01/13 14:00:37;;;;;;;46.02;18.55;;;3.50;83.10;;;;;;1918321;75;21050;-45
2023/01/13 14:03:17;;;;;;;42.83;15.95;;;3.50;83.10;;;;;;1918296;75;20979;-45
2023/01/13 14:05:55;;;;;;;45.90;17.60;;;3.50;83.10;;;;;;1913558;74;21059;-45
2023/01/13 14:08:26;;;;;;;37.70;16.82;;;3.50;83.10;;;;;;1905975;75;21043;-46
2023/01/13 14:10:55;;;;;;;36.58;15.70;;;3.50;83.10;;;;;;1905986;75;21136;-45
2023/01/13 14:13:26;;;;;;;38.83;15.63;;;3.40;83.30;;;;;;1905953;75;21012;-45
2023/01/13 14:16:06;;;;;;;51.70;19.62;;;3.30;83.30;;;;;;1905908;75;21074;-45
2023/01/13 14:18:48;;;;;;;39.30;17.73;;;3.30;83.30;;;;;;1905331;75;20988;-45
2023/01/13 14:21:23;;;;;;;51.88;19.42;;;3.30;83.30;;;;;;1905313;75;21008;-45
2023/01/13 14:24:00;;;;;;;48.92;16.97;;;3.30;83.40;;;;;;1905490;75;21047;-46
2023/01/13 14:26:31;;;;;;;48.87;18.00;;;3.30;83.50;;;;;;1905222;74;20992;-45
2023/01/13 14:29:02;;;;;;;70.42;21.95;;;3.30;83.50;;;;;;1905349;75;21004;-45
2023/01/13 14:31:31;;;;;;;58.92;18.65;;;3.20;83.60;;;;;;1905276;75;21062;-45
2023/01/13 14:34:03;;;;;;;43.33;16.70;;;3.20;83.50;;;;;;1905314;75;21007;-45
2023/01/13 14:36:35;;;;;;;51.53;19.75;;;3.10;83.60;;;;;;1905267;75;21431;-48
2023/01/13 14:39:09;;;;;;;70.45;20.17;;;3.10;83.70;;;;;;1905267;75;21120;-45
2023/01/13 14:41:44;;;;;;;58.90;20.72;;;3.10;83.80;;;;;;1892032;74;21024;-46
2023/01/13 14:44:34;;;;;;;52.62;22.95;;;3.10;83.80;;;;;;1905270;75;21541;-46
2023/01/13 14:47:07;;;;;;;54.60;21.27;;;3.10;83.80;;;;;;1904563;74;21119;-46
2023/01/13 14:49:42;;;;;;;57.67;21.65;;;3.00;84.40;;;;;;1904484;74;21113;-45
2023/01/13 14:52:12;;;;;;;;;;;3.00;83.90;;;;;;1907622;74;21020;-44
2023/01/13 14:54:47;;;;;;;46.83;20.32;;;3.00;83.80;;;;;;1905421;75;20226;-45
2023/01/13 14:57:30;;;;;;;;;;;3.00;83.80;;;;;;1908102;75;21066;-45
2023/01/13 15:00:17;;;;;;;47.67;21.30;;;2.90;83.90;;;;;;1905301;75;20101;-44
2023/01/13 15:03:01;;;;;;;50.15;22.75;;;2.90;83.50;;;;;;1905414;75;21176;-46
2023/01/13 15:05:34;;;;;;;58.20;25.80;;;2.80;83.60;;;;;;1905215;74;21486;-44
2023/01/13 15:08:12;;;;;;;62.50;25.02;;;2.80;84.10;;;;;;1904811;74;21051;-45
2023/01/13 15:10:53;;;;;;;94.72;27.02;;;2.80;83.60;;;;;;1905337;75;21027;-45
2023/01/13 15:13:25;;;;;;;70.55;23.52;;;2.70;83.70;;;;;;1905354;75;21043;-45
2023/01/13 15:15:57;;;;;;;60.50;22.62;;;2.70;83.90;;;;;;1905243;75;21105;-45
2023/01/13 15:18:26;;;;;;;72.32;25.12;;;2.70;84.00;;;;;;1905305;75;21059;-45
2023/01/13 15:20:55;;;;;;;63.83;25.20;;;2.60;84.00;;;;;;1905290;75;21077;-45
2023/01/13 15:23:24;;;;;;;57.83;24.72;;;2.70;84.20;;;;;;1905408;75;21109;-45
2023/01/13 15:25:53;;;;;;;46.95;22.02;;;2.60;84.10;;;;;;1905304;75;21036;-45
2023/01/13 15:28:25;;;;;;;51.23;21.65;;;2.60;84.10;;;;;;1905233;75;21000;-46
2023/01/13 15:30:59;;;;;;;40.15;21.00;;;2.60;84.00;;;;;;1905248;75;21011;-45
2023/01/13 15:33:26;;;;;;;53.40;24.10;;;2.60;84.00;;;;;;1905099;74;21066;-45
2023/01/13 15:35:56;;;;;;;65.50;32.63;;;2.60;84.10;;;;;;1905209;75;21042;-45
2023/01/13 15:38:25;;;;;;;88.37;42.25;;;2.60;84.10;;;;;;1905255;75;21007;-44
2023/01/13 15:40:54;;;;;;;71.33;38.02;;;2.50;83.90;;;;;;1905383;74;21027;-46
2023/01/13 15:46:37;;;;;;;70.37;31.68;;;2.40;83.90;;;;;;1905315;75;21038;-45
2023/01/13 15:49:20;;;;;;;73.28;33.92;;;2.40;84.20;;;;;;1905236;75;21113;-44
2023/01/13 15:51:55;;;;;;;63.60;33.00;;;2.40;84.20;;;;;;1905333;75;21908;-44
2023/01/13 15:54:31;;;;;;;59.05;28.95;;;2.40;84.20;;;;;;1905177;75;21035;-45
2023/01/13 15:57:06;;;;;;;51.28;23.27;;;2.40;84.20;;;;;;1905138;75;21125;-44
2023/01/13 15:59:41;;;;;;;45.20;23.02;;;2.40;84.10;;;;;;1905340;75;21040;-45
2023/01/13 16:02:21;;;;;;;55.52;23.42;;;2.40;83.90;;;;;;1905198;75;21087;-44
2023/01/13 16:04:52;;;;;;;40.23;21.15;;;2.40;83.90;;;;;;1905458;75;21540;-45
2023/01/13 16:07:28;;;;;;;53.35;22.95;;;2.30;83.80;;;;;;1909498;74;21051;-45
2023/01/13 16:10:15;;;;;;;52.85;24.82;;;2.30;84.20;;;;;;1909615;74;21039;-44
2023/01/13 16:13:02;;;;;;;50.60;24.50;;;2.30;84.30;;;;;;1908195;74;21497;-44
2023/01/13 16:15:49;;;;;;;46.10;23.87;;;2.30;84.10;;;;;;1909791;74;21092;-44
2023/01/13 16:18:36;;;;;;;48.02;22.60;;;2.30;84.10;;;;;;1909301;74;21493;-45
2023/01/13 16:21:22;;;;;;;45.83;23.20;;;2.30;84.10;;;;;;1907002;74;21180;-45
2023/01/13 16:24:09;;;;;;;57.55;26.12;;;2.30;84.10;;;;;;1905824;74;21105;-45
2023/01/13 16:26:55;;;;;;;42.00;24.95;;;2.20;84.10;;;;;;1905370;74;21038;-45
2023/01/13 16:29:42;;;;;;;56.90;26.23;;;2.20;84.20;;;;;;1906556;75;21055;-46
2023/01/13 16:32:29;;;;;;;69.07;26.33;;;2.20;84.40;;;;;;1906133;74;21060;-44
2023/01/13 16:35:17;;;;;;;52.90;24.05;;;2.20;84.40;;;;;;1910981;74;21039;-45
2023/01/13 16:37:53;;;;;;;47.88;25.70;;;2.20;84.30;;;;;;1906115;74;21620;-45
2023/01/13 16:40:33;;;;;;;41.98;23.22;;;2.20;84.30;;;;;;1905093;75;21039;-44
2023/01/13 16:43:05;;;;;;;49.50;25.15;;;2.10;84.30;;;;;;1903662;75;21036;-46
2023/01/13 16:45:34;;;;;;;55.88;28.30;;;2.10;84.40;;;;;;1903376;75;21039;-47
2023/01/13 16:48:03;;;;;;;59.25;27.05;;;2.10;84.40;;;;;;1905173;75;21023;-47
2023/01/13 16:50:42;;;;;;;57.80;30.50;;;2.10;84.30;;;;;;1905087;75;21092;-45
2023/01/13 16:53:09;;;;;;;63.87;28.77;;;2.00;84.30;;;;;;1903783;75;21109;-46
2023/01/13 16:55:39;;;;;;;51.68;27.15;;;2.00;84.30;;;;;;1905173;75;21023;-45
2023/01/13 16:58:11;;;;;;;55.25;29.15;;;2.00;84.30;;;;;;1905198;75;21105;-45
2023/01/13 17:00:40;;;;;;;49.73;24.02;;;2.00;84.20;;;;;;1904886;74;21027;-45
2023/01/13 17:03:09;;;;;;;57.35;26.82;;;1.90;84.20;;;;;;1905161;75;22156;-45
2023/01/13 17:05:41;;;;;;;57.27;26.37;;;1.90;84.20;;;;;;1905184;75;21102;-45
2023/01/13 17:08:17;;;;;;;42.33;22.73;;;1.80;84.50;;;;;;1904738;74;21085;-44
2023/01/13 17:10:43;;;;;;;72.32;30.85;;;1.80;85.40;;;;;;1903255;74;21461;-46
2023/01/13 17:13:13;;;;;;;54.00;27.20;;;1.80;84.50;;;;;;1905191;74;21055;-45
2023/01/13 17:15:42;;;;;;;48.78;24.92;;;1.90;84.50;;;;;;1905047;75;21023;-45
2023/01/13 17:18:12;;;;;;;58.83;24.90;;;1.80;84.50;;;;;;1905086;75;21004;-44
2023/01/13 17:20:41;;;;;;;58.28;26.50;;;1.80;84.60;;;;;;1905108;75;21028;-45
2023/01/13 17:23:10;;;;;;;47.93;22.87;;;1.80;84.50;;;;;;1905027;75;21039;-46
2023/01/13 17:25:38;;;;;;;72.15;25.32;;;1.80;84.40;;;;;;1905075;75;21051;-45
2023/01/13 17:28:07;;;;;;;58.35;24.00;;;1.70;84.60;;;;;;1905055;75;21089;-45
2023/01/13 17:30:36;;;;;;;57.25;25.88;;;1.70;84.60;;;;;;1905112;75;21031;-44
2023/01/13 17:33:05;;;;;;;63.23;25.75;;;1.70;84.50;;;;;;1905100;75;21410;-44
2023/01/13 17:35:34;;;;;;;56.37;25.75;;;1.70;84.50;;;;;;1905060;75;21074;-45
2023/01/13 17:38:03;;;;;;;53.38;25.82;;;1.70;84.50;;;;;;1905168;74;21128;-45
2023/01/13 17:40:32;;;;;;;61.15;26.02;;;1.70;84.70;;;;;;1905034;75;21114;-45
2023/01/13 17:43:02;;;;;;;60.83;25.65;;;1.70;84.70;;;;;;1905225;75;21117;-45
2023/01/13 17:45:31;;;;;;;58.78;24.92;;;1.70;84.50;;;;;;1905098;75;21114;-44
2023/01/13 17:48:00;;;;;;;59.00;25.72;;;1.70;84.50;;;;;;1905107;75;21450;-45
2023/01/13 17:50:31;;;;;;;53.75;27.45;;;1.70;84.20;;;;;;1905067;75;21008;-47
2023/01/13 17:53:00;;;;;;;55.75;23.75;;;1.60;84.10;;;;;;1905251;75;21540;-44
2023/01/13 17:55:29;;;;;;;44.53;26.37;;;1.60;84.10;;;;;;1905137;75;20980;-45
2023/01/13 17:57:58;;;;;;;68.57;27.75;;;1.50;84.40;;;;;;1905211;75;21004;-45
2023/01/13 18:00:28;;;;;;;53.23;28.23;;;1.50;84.60;;;;;;1905543;75;21034;-45
2023/01/13 18:02:57;;;;;;;46.77;28.47;;;1.50;84.60;;;;;;1905250;75;21132;-46
2023/01/13 18:05:27;;;;;;;46.13;24.75;;;1.50;84.60;;;;;;1905288;75;21128;-44
2023/01/13 18:07:56;;;;;;;50.23;27.98;;;1.40;84.30;;;;;;1905314;75;21011;-45
2023/01/13 18:10:25;;;;;;;59.95;27.75;;;1.40;84.60;;;;;;1905217;75;21443;-44
2023/01/13 18:12:56;;;;;;;46.35;26.90;;;1.30;84.60;;;;;;1905313;75;21008;-44
2023/01/13 18:15:25;;;;;;;49.50;25.10;;;1.40;84.60;;;;;;1905288;75;21008;-44
2023/01/13 18:17:54;;;;;;;46.58;27.32;;;1.30;84.60;;;;;;1905194;75;21462;-45
2023/01/13 18:28:29;;;;;;;40.90;23.42;;;1.30;84.50;;;;;;1905397;75;21040;-44
2023/01/13 18:30:58;;;;;;;51.13;25.65;;;1.30;84.70;;;;;;1905547;75;21121;-45
2023/01/13 18:33:27;;;;;;;43.48;24.35;;;1.30;84.50;;;;;;1905308;75;21115;-44
2023/01/13 18:35:56;;;;;;;52.90;25.30;;;1.30;84.30;;;;;;1905192;74;21024;-44
2023/01/13 18:38:25;;;;;;;45.20;25.15;;;1.30;84.30;;;;;;1907189;74;21112;-44
2023/01/13 18:40:54;;;;;;;46.20;23.40;;;1.20;84.30;;;;;;1909445;75;21012;-45
2023/01/13 18:43:23;;;;;;;46.40;24.30;;;1.20;84.70;;;;;;1908008;75;20983;-45
2023/01/13 18:45:52;;;;;;;47.05;23.92;;;1.20;84.60;;;;;;1907424;75;21008;-44
2023/01/13 18:48:21;;;;;;;45.05;24.77;;;1.20;84.70;;;;;;1905894;75;21031;-45
2023/01/13 18:50:50;;;;;;;60.25;27.25;;;1.20;84.80;;;;;;1903823;75;21070;-46
2023/01/13 18:53:19;;;;;;;44.48;24.72;;;1.20;84.80;;;;;;1904350;75;21089;-45
2023/01/13 18:55:48;;;;;;;52.03;24.10;;;1.20;84.70;;;;;;1905156;75;21015;-45
2023/01/13 18:58:19;;;;;;;44.00;24.25;;;1.20;84.60;;;;;;1904532;74;21120;-44
2023/01/13 19:00:48;;;;;;;44.77;25.68;;;1.20;84.70;;;;;;1906662;74;21563;-46
2023/01/13 19:03:21;;;;;;;56.13;24.43;;;1.20;84.70;;;;;;1905434;74;21074;-45
2023/01/13 19:05:47;;;;;;;49.13;25.20;;;1.20;84.60;;;;;;1909099;74;21094;-44
2023/01/13 19:08:16;;;;;;;46.33;24.27;;;1.20;84.80;;;;;;1907266;75;21101;-44
2023/01/13 19:10:45;;;;;;;44.73;24.35;;;1.20;84.50;;;;;;1907194;75;21093;-45
2023/01/13 19:13:15;;;;;;;44.58;27.85;;;1.20;84.60;;;;;;1908229;74;21004;-46
2023/01/13 19:15:44;;;;;;;48.55;25.77;;;1.10;84.60;;;;;;1905281;74;21066;-44
2023/01/13 19:18:15;;;;;;;47.67;26.90;;;1.10;84.60;;;;;;1907826;74;21106;-45
2023/01/13 19:20:44;;;;;;;62.78;25.75;;;1.00;84.60;;;;;;1908138;75;21047;-44
2023/01/13 19:23:13;;;;;;;56.35;27.17;;;1.00;84.40;;;;;;1908062;75;21003;-44
2023/01/13 19:25:42;;;;;;;55.63;25.92;;;0.90;84.60;;;;;;1908505;74;21125;-45
2023/01/13 19:28:11;;;;;;;56.90;27.50;;;1.00;84.80;;;;;;1906848;74;21498;-44
2023/01/13 19:30:40;;;;;;;55.33;27.52;;;1.00;84.70;;;;;;1908755;74;21445;-44
2023/01/13 19:33:09;;;;;;;49.50;24.25;;;1.00;84.90;;;;;;1906113;74;21077;-46
2023/01/13 19:35:38;;;;;;;58.92;28.35;;;1.00;84.80;;;;;;1907334;74;21089;-44
2023/01/13 19:38:07;;;;;;;59.50;29.42;;;1.00;84.80;;;;;;1908942;74;21051;-44
2023/01/13 19:40:36;;;;;;;63.68;29.40;;;1.00;84.70;;;;;;1912321;75;21066;-45
2023/01/13 19:45:52;;;;;;;50.78;25.97;;;1.00;84.70;;;;;;1912503;75;21031;-45
2023/01/13 19:48:22;;;;;;;48.98;25.80;;;0.90;84.60;;;;;;1905180;75;21031;-45
2023/01/13 19:50:51;;;;;;;49.63;24.72;;;0.90;84.60;;;;;;1905326;75;21004;-45
2023/01/13 19:53:20;;;;;;;42.25;24.40;;;0.90;84.70;;;;;;1905340;75;21544;-44
2023/01/13 19:55:49;;;;;;;43.23;24.43;;;0.90;84.90;;;;;;1905306;75;21008;-47
2023/01/13 19:58:18;;;;;;;40.88;23.55;;;0.90;84.80;;;;;;1905376;75;20988;-45
2023/01/13 20:00:47;;;;;;;42.35;22.95;;;0.80;84.50;;;;;;1905207;75;21079;-44
2023/01/13 20:03:19;;;;;;;55.55;21.87;;;0.70;84.60;;;;;;1905508;75;21008;-45
2023/01/13 20:05:48;;;;;;;48.65;23.83;;;0.70;84.80;;;;;;1905411;75;21106;-44
2023/01/13 20:08:22;;;;;;;40.60;21.97;;;0.70;84.80;;;;;;1905281;75;21042;-45
2023/01/13 20:11:20;;;;;;;42.50;22.07;;;0.70;85.00;;;;;;1905370;75;21007;-46
2023/01/13 20:13:21;;;;;;;44.35;22.42;;;0.80;85.00;;;;;;1903392;75;21011;-45
2023/01/13 20:15:50;;;;;;;31.62;21.48;;;0.80;84.90;;;;;;1905001;75;21031;-44
2023/01/13 20:18:19;;;;;;;37.83;22.15;;;0.70;85.00;;;;;;1905068;75;21062;-45
2023/01/13 20:20:48;;;;;;;39.85;22.67;;;0.70;84.90;;;;;;1905353;75;21055;-46
2023/01/13 20:23:17;;;;;;;36.10;22.42;;;0.70;84.80;;;;;;1905210;75;21498;-45
2023/01/13 20:25:47;;;;;;;39.15;22.58;;;0.70;85.00;;;;;;1905248;75;21047;-46
2023/01/13 20:28:16;;;;;;;40.90;21.45;;;0.70;85.00;;;;;;1905150;75;21012;-45
2023/01/13 20:30:45;;;;;;;35.23;21.55;;;0.70;85.00;;;;;;1905104;75;21081;-44
2023/01/13 20:33:14;;;;;;;49.75;23.40;;;0.70;85.00;;;;;;1905275;75;21458;-44
2023/01/13 20:35:44;;;;;;;52.67;24.47;;;0.80;84.70;;;;;;1905160;75;21125;-47
2023/01/13 20:38:15;;;;;;;56.83;27.55;;;0.70;84.60;;;;;;1904973;74;21019;-45
2023/01/13 20:40:44;;;;;;;42.17;22.85;;;0.70;84.80;;;;;;1907415;74;21490;-45
2023/01/13 20:43:13;;;;;;;53.55;24.25;;;0.70;84.60;;;;;;1907322;75;21105;-45
2023/01/13 20:45:42;;;;;;;50.58;25.17;;;0.60;84.40;;;;;;1905928;75;21079;-45
2023/01/13 20:48:11;;;;;;;39.90;23.85;;;0.70;84.50;;;;;;1906438;75;21036;-44
2023/01/13 20:50:40;;;;;;;39.20;21.90;;;0.70;84.50;;;;;;1905473;75;21004;-44
2023/01/13 20:53:10;;;;;;;40.75;22.25;;;0.70;84.20;;;;;;1908267;75;21003;-45
2023/01/13 20:55:40;;;;;;;44.05;24.40;;;0.60;84.20;;;;;;1910802;74;21070;-45
2023/01/13 20:58:10;;;;;;;34.75;21.37;;;0.60;84.30;;;;;;1907348;74;21039;-45
2023/01/13 21:00:39;;;;;;;40.43;20.88;;;0.60;84.50;;;;;;1906720;75;21011;-44
2023/01/13 21:03:08;;;;;;;34.30;21.42;;;0.50;84.50;;;;;;1907067;74;21051;-44
2023/01/13 21:05:37;;;;;;;40.12;22.05;;;0.50;84.30;;;;;;1908029;74;20980;-45
2023/01/13 21:08:06;;;;;;;40.58;22.35;;;0.50;84.30;;;;;;1907325;75;21177;-45
2023/01/13 21:10:35;;;;;;;38.25;22.42;;;0.50;84.40;;;;;;1904971;75;21003;-44
2023/01/13 21:15:54;;;;;;;42.30;23.35;;;0.40;84.40;;;;;;1906449;75;21036;-45
2023/01/13 21:21:12;;;;;;;43.55;23.20;;;0.40;84.40;;;;;;1910773;75;21101;-45
2023/01/13 21:23:43;;;;;;;43.58;22.70;;;0.30;84.40;;;;;;1907195;74;21027;-45
2023/01/13 21:26:14;;;;;;;37.80;20.12;;;0.30;84.70;;;;;;1912914;75;21104;-45
2023/01/13 21:28:43;;;;;;;35.05;21.35;;;0.30;84.50;;;;;;1912174;75;21031;-44
2023/01/13 21:31:12;;;;;;;33.67;20.35;;;0.30;84.50;;;;;;1905808;75;21007;-44
2023/01/13 21:33:41;;;;;;;38.95;22.45;;;0.30;84.60;;;;;;1905927;75;21065;-46
2023/01/13 21:36:12;;;;;;;43.55;19.80;;;0.30;84.60;;;;;;1907993;74;21022;-45
2023/01/13 21:38:41;;;;;;;39.75;21.97;;;0.20;84.70;;;;;;1909412;74;21007;-45
2023/01/13 21:41:13;;;;;;;32.35;19.92;;;0.30;84.80;;;;;;1907574;74;21051;-45
2023/01/13 21:49:16;;;;;;;36.42;19.98;;;0.30;84.80;;;;;;1905390;74;21105;-44
2023/01/13 21:51:45;;;;;;;34.67;19.60;;;0.30;84.60;;;;;;1905204;75;21011;-44
2023/01/13 21:54:14;;;;;;;37.55;19.70;;;0.30;84.70;;;;;;1905481;75;21008;-45
2023/01/13 21:56:43;;;;;;;34.92;19.37;;;0.30;84.70;;;;;;1905369;75;21028;-46
2023/01/13 21:59:12;;;;;;;37.00;21.50;;;0.30;84.50;;;;;;1905254;75;21115;-44
2023/01/13 22:01:41;;;;;;;39.38;20.57;;;0.30;84.70;;;;;;1905193;75;21516;-46
2023/01/13 22:04:13;;;;;;;35.40;20.15;;;0.20;84.50;;;;;;1905257;75;21543;-44
2023/01/13 22:06:42;;;;;;;36.38;21.33;;;0.20;84.70;;;;;;1905108;75;21015;-45
2023/01/13 22:09:11;;;;;;;37.53;20.37;;;0.20;84.50;;;;;;1905271;75;21098;-47
2023/01/13 22:11:40;;;;;;;29.90;19.07;;;0.20;84.50;;;;;;1905166;75;21039;-44
2023/01/13 22:14:09;;;;;;;34.98;19.48;;;0.30;84.70;;;;;;1905438;74;21085;-45
2023/01/13 22:16:48;;;;;;;32.78;20.10;;;0.20;84.60;;;;;;1905232;75;21038;-45
2023/01/13 22:19:16;;;;;;;31.10;20.37;;;0.30;84.60;;;;;;1905143;74;21043;-44
2023/01/13 22:21:45;;;;;;;35.08;20.05;;;0.20;84.30;;;;;;1905436;75;21015;-44
2023/01/13 22:24:15;;;;;;;37.38;20.45;;;0.20;84.30;;;;;;1905488;75;21047;-44
2023/01/13 22:26:44;;;;;;;35.03;21.10;;;0.20;84.20;;;;;;1905535;75;21081;-45
2023/01/13 22:29:13;;;;;;;33.02;19.17;;;0.20;84.20;;;;;;1905116;74;21008;-44
2023/01/13 22:31:42;;;;;;;38.25;20.92;;;0.10;84.20;;;;;;1905145;75;21051;-45
2023/01/13 22:34:12;;;;;;;35.73;20.57;;;0.00;84.40;;;;;;1905169;75;21016;-44
2023/01/13 22:36:42;;;;;;;36.28;18.95;;;0.10;84.50;;;;;;1905133;75;21543;-45
2023/01/13 22:39:11;;;;;;;31.73;18.80;;;0.00;84.60;;;;;;1905294;75;20988;-45
2023/01/13 22:41:42;;;;;;;33.53;18.98;;;0.10;84.60;;;;;;1906118;74;21130;-45
2023/01/13 22:44:11;;;;;;;30.25;18.05;;;0.10;84.40;;;;;;1907140;74;21113;-45
2023/01/13 22:46:40;;;;;;;32.88;17.67;;;0.00;84.30;;;;;;1907618;74;21031;-45
2023/01/13 22:49:10;;;;;;;40.67;19.42;;;0.10;84.40;;;;;;1908043;74;21008;-45
2023/01/13 22:51:40;;;;;;;29.40;17.07;;;0.10;84.40;;;;;;1908394;75;21015;-45
2023/01/13 22:54:09;;;;;;;31.73;17.42;;;0.10;84.30;;;;;;1906318;75;21473;-45
2023/01/13 22:56:39;;;;;;;34.30;17.37;;;0.00;82.90;;;;;;1906282;75;21035;-45
2023/01/13 22:59:09;;;;;;;29.05;17.62;;;-0.20;83.40;;;;;;1905985;74;20995;-45
2023/01/13 23:01:38;;;;;;;32.90;19.82;;;-0.20;84.10;;;;;;1906204;74;21034;-44
2023/01/13 23:04:07;;;;;;;27.98;16.50;;;-0.30;84.70;;;;;;1908307;75;21183;-45
2023/01/13 23:06:36;;;;;;;32.13;19.15;;;-0.30;84.60;;;;;;1908703;74;21494;-45
2023/01/13 23:09:05;;;;;;;37.30;18.10;;;-0.20;84.80;;;;;;1907161;75;21094;-44
2023/01/13 23:11:34;;;;;;;35.38;18.85;;;-0.20;84.60;;;;;;1905538;75;21008;-45
2023/01/13 23:14:06;;;;;;;38.85;18.67;;;-0.10;84.50;;;;;;1908517;74;21031;-46
2023/01/13 23:16:37;;;;;;;28.07;17.35;;;-0.10;84.50;;;;;;1912841;74;21003;-44
2023/01/13 23:19:07;;;;;;;40.28;18.95;;;-0.10;84.60;;;;;;1911462;74;21003;-45
2023/01/13 23:21:37;;;;;;;30.08;17.23;;;-0.10;84.60;;;;;;1907326;75;21085;-45
2023/01/13 23:24:07;;;;;;;34.25;17.87;;;-0.10;84.30;;;;;;1907141;75;21036;-44
2023/01/13 23:26:37;;;;;;;36.15;18.55;;;-0.10;84.40;;;;;;1905518;75;21039;-44
2023/01/13 23:29:12;;;;;;;30.45;16.65;;;-0.10;84.40;;;;;;1894651;75;21430;-45
2023/01/13 23:31:42;;;;;;;27.32;17.85;;;-0.10;84.40;;;;;;1905670;75;21007;-45
2023/01/13 23:34:10;;;;;;;32.98;17.15;;;-0.10;84.60;;;;;;1908081;75;21031;-44
2023/01/13 23:36:42;;;;;;;27.73;16.35;;;-0.10;84.60;;;;;;1908301;75;21124;-44
2023/01/13 23:39:10;;;;;;;29.50;15.98;;;-0.10;84.70;;;;;;1907962;75;21016;-44
2023/01/13 23:41:39;;;;;;;29.12;16.48;;;-0.10;84.70;;;;;;1906332;74;21083;-44
2023/01/13 23:44:09;;;;;;;34.88;17.48;;;-0.10;84.50;;;;;;1905471;75;20995;-45
2023/01/13 23:46:38;;;;;;;28.52;16.20;;;0.00;84.60;;;;;;1908274;74;20980;-45
2023/01/13 23:49:07;;;;;;;29.15;17.32;;;0.00;84.40;;;;;;1911210;74;21032;-44
2023/01/13 23:51:36;;;;;;;32.70;18.05;;;0.00;84.20;;;;;;1905229;75;21000;-44
2023/01/13 23:54:05;;;;;;;26.37;17.27;;;-0.10;84.30;;;;;;1905281;75;20984;-44
2023/01/13 23:56:38;;;;;;;35.43;19.17;;;-0.10;84.30;;;;;;1905335;75;21016;-44
2023/01/13 23:59:05;;;;;;;32.17;18.35;;;-0.10;84.40;;;;;;1905340;74;21020;-45
